Time;durP1;ratioP1;P1;durP2;ratioP2;P2;SDS_P1;SDS_P2;PMS_P1;PMS_P2;Temp;Humidity;BMP_temperature;BMP_pressure;BME280_temperature;BME280_humidity;BME280_pressure;Samples;Min_cycle;Max_cycle;Signal;HPM_P1;HPM_P2
2023/05/26 00:00:25;;;;;;;21.00;5.35;;;;;;;;;;4909979;28;20043;-84
2023/05/26 00:02:51;;;;;;;20.63;5.28;;;;;;;;;;4899538;28;22039;-85
2023/05/26 00:05:20;;;;;;;16.30;4.85;;;;;;;;;;4999563;28;20047;-85
2023/05/26 00:07:48;;;;;;;24.02;5.80;;;;;;;;;;4907938;28;20051;-85
2023/05/26 00:10:14;;;;;;;14.77;4.82;;;;;;;;;;4933868;28;20070;-85
2023/05/26 00:12:40;;;;;;;17.10;4.88;;;;;;;;;;4896798;28;20051;-85
2023/05/26 00:15:07;;;;;;;20.25;4.57;;;;;;;;;;4916623;28;20134;-85
2023/05/26 00:17:33;;;;;;;23.40;5.28;;;;;;;;;;4975097;28;20154;-85
2023/05/26 00:20:02;;;;;;;14.05;4.32;;;;;;;;;;4912142;28;20075;-85
2023/05/26 00:22:30;;;;;;;19.50;4.78;;;;;;;;;;4907356;28;20054;-85
2023/05/26 00:24:56;;;;;;;15.50;4.00;;;;;;;;;;4912726;28;20388;-85
2023/05/26 00:27:28;;;;;;;19.45;5.05;;;;;;;;;;4909762;28;20058;-85
2023/05/26 00:29:57;;;;;;;20.48;5.25;;;;;;;;;;4938488;28;20438;-85
2023/05/26 00:32:33;;;;;;;18.83;5.38;;;;;;;;;;4915457;28;20045;-85
2023/05/26 00:35:01;;;;;;;18.50;5.15;;;;;;;;;;4913502;28;20447;-85
2023/05/26 00:37:40;;;;;;;21.17;4.93;;;;;;;;;;4922163;28;21095;-85
2023/05/26 00:40:07;;;;;;;16.52;5.00;;;;;;;;;;4906300;28;20472;-85
2023/05/26 00:42:40;;;;;;;25.17;5.18;;;;;;;;;;4892086;28;20507;-85
2023/05/26 00:45:06;;;;;;;19.58;4.97;;;;;;;;;;4895707;28;20059;-85
2023/05/26 00:47:32;;;;;;;18.08;5.32;;;;;;;;;;4909580;28;20071;-85
2023/05/26 00:50:08;;;;;;;20.23;5.47;;;;;;;;;;5007037;28;20088;-85
2023/05/26 00:52:36;;;;;;;19.75;5.40;;;;;;;;;;4906009;28;20186;-85
2023/05/26 00:55:03;;;;;;;20.10;5.45;;;;;;;;;;4895722;28;20043;-84
2023/05/26 00:57:29;;;;;;;23.58;5.75;;;;;;;;;;4910994;28;20931;-85
2023/05/26 00:59:59;;;;;;;16.88;4.50;;;;;;;;;;4919053;28;20075;-85
2023/05/26 01:02:26;;;;;;;20.48;4.97;;;;;;;;;;4929563;28;20058;-85
2023/05/26 01:04:58;;;;;;;19.52;5.38;;;;;;;;;;4905613;28;20067;-84
2023/05/26 01:07:32;;;;;;;16.63;4.40;;;;;;;;;;4920357;28;20043;-85
2023/05/26 01:10:01;;;;;;;20.42;5.05;;;;;;;;;;4894141;28;20141;-85
2023/05/26 01:12:30;;;;;;;21.35;6.03;;;;;;;;;;4893136;28;20082;-85
2023/05/26 01:15:01;;;;;;;18.35;4.82;;;;;;;;;;4920155;28;20506;-86
2023/05/26 01:17:38;;;;;;;18.42;5.22;;;;;;;;;;4898645;28;22601;-85
2023/05/26 01:20:23;;;;;;;21.40;5.28;;;;;;;;;;4915739;28;20051;-85
2023/05/26 01:23:27;;;;;;;20.30;4.90;;;;;;;;;;4925770;28;20173;-85
2023/05/26 01:26:12;;;;;;;21.48;5.32;;;;;;;;;;4883093;28;20048;-84
2023/05/26 01:28:42;;;;;;;18.83;5.43;;;;;;;;;;4925913;28;20062;-85
2023/05/26 01:31:08;;;;;;;20.85;5.03;;;;;;;;;;4902937;28;20043;-85
2023/05/26 01:33:37;;;;;;;19.35;5.43;;;;;;;;;;4903416;28;20054;-85
2023/05/26 01:36:06;;;;;;;19.80;4.88;;;;;;;;;;4900274;28;20434;-85
2023/05/26 01:38:32;;;;;;;12.50;4.32;;;;;;;;;;4890703;28;20409;-85
2023/05/26 01:41:14;;;;;;;17.73;5.25;;;;;;;;;;4907675;28;20408;-85
2023/05/26 01:44:08;;;;;;;15.93;4.40;;;;;;;;;;4892067;28;20400;-85
2023/05/26 01:46:54;;;;;;;14.77;5.03;;;;;;;;;;4923450;28;20047;-85
2023/05/26 01:49:31;;;;;;;22.08;5.18;;;;;;;;;;4936776;28;21077;-85
2023/05/26 01:52:16;;;;;;;22.05;5.28;;;;;;;;;;4912097;28;20043;-85
2023/05/26 01:54:50;;;;;;;19.45;5.30;;;;;;;;;;4911257;28;20117;-85
2023/05/26 01:57:17;;;;;;;17.35;4.90;;;;;;;;;;4926462;28;20522;-85
2023/05/26 01:59:43;;;;;;;19.92;5.18;;;;;;;;;;4986067;28;20055;-85
2023/05/26 02:02:12;;;;;;;21.10;5.28;;;;;;;;;;4912180;28;20158;-85
2023/05/26 02:04:46;;;;;;;25.05;5.43;;;;;;;;;;4982190;28;20143;-85
2023/05/26 02:07:12;;;;;;;16.83;4.78;;;;;;;;;;4932353;28;20093;-85
2023/05/26 02:09:40;;;;;;;19.42;5.05;;;;;;;;;;4890954;28;20039;-85
2023/05/26 02:12:15;;;;;;;25.38;5.47;;;;;;;;;;4921694;28;20054;-85
2023/05/26 02:14:46;;;;;;;17.85;5.28;;;;;;;;;;4890571;28;20403;-85
2023/05/26 02:17:13;;;;;;;20.52;5.25;;;;;;;;;;4896250;28;20053;-85
2023/05/26 02:19:46;;;;;;;16.25;4.65;;;;;;;;;;4995114;28;20067;-85
2023/05/26 02:22:32;;;;;;;23.98;5.28;;;;;;;;;;4914915;28;20073;-85
2023/05/26 02:24:58;;;;;;;28.33;5.22;;;;;;;;;;4897823;28;20047;-84
2023/05/26 02:27:33;;;;;;;18.95;5.25;;;;;;;;;;4889343;28;20705;-84
2023/05/26 02:30:09;;;;;;;20.23;5.38;;;;;;;;;;4922078;28;20047;-85
2023/05/26 02:32:38;;;;;;;14.38;4.55;;;;;;;;;;4913591;28;20139;-85
2023/05/26 02:35:09;;;;;;;18.80;5.80;;;;;;;;;;4903768;28;20039;-84
2023/05/26 02:37:38;;;;;;;19.95;5.25;;;;;;;;;;4906504;28;20047;-85
2023/05/26 02:40:09;;;;;;;23.60;5.63;;;;;;;;;;4906312;28;20241;-85
2023/05/26 02:42:40;;;;;;;15.93;4.78;;;;;;;;;;4923617;28;20622;-85
2023/05/26 02:45:32;;;;;;;20.35;5.35;;;;;;;;;;4919276;28;20062;-86
2023/05/26 02:47:59;;;;;;;14.80;4.65;;;;;;;;;;4913854;28;20050;-85
2023/05/26 02:50:25;;;;;;;20.23;4.97;;;;;;;;;;4928238;28;20046;-85
2023/05/26 02:52:51;;;;;;;17.27;5.18;;;;;;;;;;4891474;28;20108;-84
2023/05/26 02:55:21;;;;;;;19.77;5.22;;;;;;;;;;4914160;28;20042;-85
2023/05/26 02:57:51;;;;;;;15.90;4.78;;;;;;;;;;4966363;28;20051;-85
2023/05/26 03:00:50;;;;;;;19.65;5.22;;;;;;;;;;4928632;28;20047;-84
2023/05/26 03:03:18;;;;;;;19.67;5.38;;;;;;;;;;4926266;28;20130;-84
2023/05/26 03:05:45;;;;;;;18.95;5.50;;;;;;;;;;4907193;28;20194;-84
2023/05/26 03:08:13;;;;;;;16.88;5.03;;;;;;;;;;4896851;28;20181;-85
2023/05/26 03:10:45;;;;;;;19.05;5.35;;;;;;;;;;4920312;28;20059;-85
2023/05/26 03:13:13;;;;;;;18.65;4.88;;;;;;;;;;4899037;28;20429;-85
2023/05/26 03:16:12;;;;;;;21.63;5.03;;;;;;;;;;4891341;28;22667;-84
2023/05/26 03:18:44;;;;;;;17.35;4.72;;;;;;;;;;4926337;28;20039;-85
2023/05/26 03:21:16;;;;;;;16.13;4.30;;;;;;;;;;4898329;28;20047;-84
2023/05/26 03:23:55;;;;;;;17.75;5.43;;;;;;;;;;4897963;28;20055;-84
2023/05/26 03:26:43;;;;;;;20.13;5.32;;;;;;;;;;4916181;28;20383;-84
2023/05/26 03:29:22;;;;;;;;;;;;;;;;;;;;;
2023/05/26 03:31:52;;;;;;;21.90;5.20;;;;;;;;;;4910716;28;20059;-84
2023/05/26 03:34:30;;;;;;;22.00;5.15;;;;;;;;;;4924266;28;20083;-85
2023/05/26 03:36:59;;;;;;;14.18;5.40;;;;;;;;;;4919035;28;20039;-85
2023/05/26 03:39:37;;;;;;;14.95;4.72;;;;;;;;;;4904249;28;20081;-85
2023/05/26 03:42:09;;;;;;;21.48;5.07;;;;;;;;;;4895472;28;20044;-85
2023/05/26 03:44:48;;;;;;;26.27;5.45;;;;;;;;;;4977479;28;20051;-85
2023/05/26 03:47:20;;;;;;;20.55;4.95;;;;;;;;;;4928588;28;20046;-85
2023/05/26 03:49:57;;;;;;;23.38;5.40;;;;;;;;;;4927974;28;20130;-84
2023/05/26 03:52:33;;;;;;;16.38;5.20;;;;;;;;;;4909834;28;20065;-85
2023/05/26 03:55:04;;;;;;;17.35;4.97;;;;;;;;;;4903513;28;20044;-84
2023/05/26 03:57:44;;;;;;;15.75;5.18;;;;;;;;;;4921739;28;20055;-85
2023/05/26 04:00:30;;;;;;;19.38;5.05;;;;;;;;;;4914164;28;20039;-84
2023/05/26 04:03:12;;;;;;;20.05;5.82;;;;;;;;;;4931561;28;20996;-85
2023/05/26 04:05:41;;;;;;;20.52;5.70;;;;;;;;;;4899938;28;20047;-84
2023/05/26 04:08:17;;;;;;;18.67;5.50;;;;;;;;;;4895111;28;20112;-85
2023/05/26 04:10:46;;;;;;;19.15;5.20;;;;;;;;;;4934077;28;20124;-85
2023/05/26 04:13:17;;;;;;;21.30;5.57;;;;;;;;;;4918694;28;20093;-85
2023/05/26 04:15:55;;;;;;;22.10;5.70;;;;;;;;;;4912273;28;20109;-85
2023/05/26 04:18:41;;;;;;;24.65;5.75;;;;;;;;;;4916673;28;20078;-85
2023/05/26 04:21:10;;;;;;;20.08;5.72;;;;;;;;;;4941810;28;20384;-84
2023/05/26 04:23:41;;;;;;;17.20;6.22;;;;;;;;;;4897575;28;20523;-85
2023/05/26 04:26:16;;;;;;;21.65;5.90;;;;;;;;;;5011933;28;20039;-85
2023/05/26 04:29:00;;;;;;;24.25;5.60;;;;;;;;;;4912504;28;20581;-85
2023/05/26 04:31:40;;;;;;;27.65;5.75;;;;;;;;;;4899775;28;20109;-84
2023/05/26 04:34:32;;;;;;;23.52;6.60;;;;;;;;;;4912379;28;20079;-85
2023/05/26 04:37:08;;;;;;;25.60;6.25;;;;;;;;;;4915956;28;20043;-85
2023/05/26 04:39:39;;;;;;;22.95;6.10;;;;;;;;;;4910465;28;20047;-85
2023/05/26 04:42:20;;;;;;;23.73;7.35;;;;;;;;;;4908312;28;20057;-85
2023/05/26 04:45:01;;;;;;;31.35;6.75;;;;;;;;;;4899720;28;20447;-84
2023/05/26 04:47:44;;;;;;;;;;;;;;;;;;5000870;28;20134;-85
2023/05/26 04:50:39;;;;;;;30.08;6.55;;;;;;;;;;4909744;28;19927;-85
2023/05/26 04:53:10;;;;;;;24.38;6.43;;;;;;;;;;4940230;28;20055;-85
2023/05/26 04:55:52;;;;;;;24.77;6.25;;;;;;;;;;4891236;28;20486;-84
2023/05/26 04:58:41;;;;;;;26.63;6.45;;;;;;;;;;4915143;28;20047;-85
2023/05/26 05:01:32;;;;;;;27.73;7.05;;;;;;;;;;4914972;28;20131;-85
2023/05/26 05:07:42;;;;;;;23.33;6.18;;;;;;;;;;4947321;28;20035;-86
2023/05/26 05:10:29;;;;;;;29.63;6.57;;;;;;;;;;4918822;28;20127;-85
2023/05/26 05:13:41;;;;;;;28.20;6.40;;;;;;;;;;4896814;28;20051;-85
2023/05/26 05:16:41;;;;;;;;;;;;;;;;;;;;;
2023/05/26 05:19:20;;;;;;;38.72;7.20;;;;;;;;;;4978563;28;20490;-85
2023/05/26 05:22:01;;;;;;;31.95;6.55;;;;;;;;;;4976360;28;20109;-85
2023/05/26 05:24:44;;;;;;;29.85;6.57;;;;;;;;;;4979045;28;20030;-85
2023/05/26 05:27:21;;;;;;;28.48;5.95;;;;;;;;;;4970586;28;20863;-85
2023/05/26 05:29:56;;;;;;;28.50;5.60;;;;;;;;;;4950370;28;20890;-85
2023/05/26 05:32:30;;;;;;;30.75;6.50;;;;;;;;;;4955856;28;20198;-85
2023/05/26 05:35:11;;;;;;;31.33;6.22;;;;;;;;;;4959506;28;20688;-85
2023/05/26 05:37:45;;;;;;;24.13;6.15;;;;;;;;;;4949243;28;20056;-85
2023/05/26 05:40:18;;;;;;;26.73;6.47;;;;;;;;;;4942004;28;20137;-85
2023/05/26 05:43:17;;;;;;;30.15;7.20;;;;;;;;;;4916928;28;21202;-86
2023/05/26 05:46:14;;;;;;;25.80;6.22;;;;;;;;;;4846473;28;20108;-86
2023/05/26 05:52:13;;;;;;;24.77;6.25;;;;;;;;;;4887744;29;20075;-85
2023/05/26 05:54:57;;;;;;;22.80;5.95;;;;;;;;;;4873021;29;20136;-86
2023/05/26 05:57:48;;;;;;;29.63;6.22;;;;;;;;;;4873496;29;20060;-86
2023/05/26 06:10:42;;;;;;;36.58;7.30;;;;;;;;;;4873871;29;20158;-86
2023/05/26 06:24:03;;;;;;;;;;;;;;;;;;;;;
2023/05/26 06:37:16;;;;;;;;;;;;;;;;;;;;;
2023/05/26 06:40:23;;;;;;;26.20;5.80;;;;;;;;;;4859415;29;20048;-86
2023/05/26 06:43:00;;;;;;;25.48;5.72;;;;;;;;;;4821073;29;20160;-86
2023/05/26 06:45:56;;;;;;;28.75;6.10;;;;;;;;;;4885614;29;21508;-86
2023/05/26 06:48:46;;;;;;;22.33;4.90;;;;;;;;;;4811666;29;20134;-86
2023/05/26 06:51:29;;;;;;;27.80;7.32;;;;;;;;;;4895358;28;20051;-87
2023/05/26 06:57:35;;;;;;;22.10;6.00;;;;;;;;;;4944582;28;20363;-86
2023/05/26 07:00:02;;;;;;;18.08;4.90;;;;;;;;;;4972865;28;20057;-87
2023/05/26 07:02:40;;;;;;;21.67;4.95;;;;;;;;;;4936287;28;20086;-86
2023/05/26 07:05:21;;;;;;;24.83;5.60;;;;;;;;;;4978572;28;20100;-86
2023/05/26 07:07:58;;;;;;;23.50;4.93;;;;;;;;;;4975207;28;20084;-86
2023/05/26 07:10:43;;;;;;;18.83;4.88;;;;;;;;;;4955178;28;20079;-86
2023/05/26 07:17:03;;;;;;;;;;;;;;;;;;;;;
2023/05/26 07:20:12;;;;;;;17.17;3.95;;;;;;;;;;4952467;28;20605;-87
2023/05/26 07:23:11;;;;;;;19.30;4.70;;;;;;;;;;5006390;28;20053;-87
2023/05/26 07:25:43;;;;;;;19.92;4.72;;;;;;;;;;4962286;28;20060;-86
2023/05/26 07:28:46;;;;;;;17.20;5.07;;;;;;;;;;4984361;28;20169;-87
2023/05/26 07:31:32;;;;;;;14.93;5.22;;;;;;;;;;4991973;28;20762;-86
2023/05/26 07:37:37;;;;;;;;;;;;;;;;;;;;;
2023/05/26 07:52:33;;;;;;;22.52;4.57;;;;;;;;;;4072962;26;20060;-84
2023/05/26 07:55:15;;;;;;;17.58;4.55;;;;;;;;;;5022502;28;20044;-84
2023/05/26 07:57:54;;;;;;;14.90;4.60;;;;;;;;;;5012634;28;20052;-85
2023/05/26 08:00:21;;;;;;;17.73;4.72;;;;;;;;;;5024185;28;20045;-87
2023/05/26 08:03:15;;;;;;;;;;;;;;;;;;;;;
2023/05/26 08:05:54;;;;;;;17.40;5.22;;;;;;;;;;5020883;28;20066;-87
2023/05/26 08:08:24;;;;;;;17.90;4.38;;;;;;;;;;5006616;28;20033;-87
2023/05/26 08:11:08;;;;;;;18.00;4.25;;;;;;;;;;5026027;28;20632;-87
2023/05/26 08:13:46;;;;;;;22.20;5.20;;;;;;;;;;5007376;28;20130;-88
2023/05/26 08:16:22;;;;;;;14.27;4.43;;;;;;;;;;5015993;28;20052;-87
2023/05/26 08:18:58;;;;;;;20.02;4.53;;;;;;;;;;5006596;28;21351;-87
2023/05/26 08:21:24;;;;;;;20.13;4.38;;;;;;;;;;5011653;28;20040;-87
2023/05/26 08:23:56;;;;;;;17.20;4.20;;;;;;;;;;5000474;28;20079;-87
2023/05/26 08:26:22;;;;;;;16.52;4.25;;;;;;;;;;5013016;28;20469;-87
2023/05/26 08:29:14;;;;;;;16.45;5.03;;;;;;;;;;5030581;28;20040;-87
2023/05/26 08:31:49;;;;;;;17.02;4.15;;;;;;;;;;5048443;28;20469;-87
2023/05/26 08:34:18;;;;;;;17.67;4.90;;;;;;;;;;5028696;28;20124;-87
2023/05/26 08:36:44;;;;;;;;;;;;;;;;;;5022591;28;20091;-87
2023/05/26 08:39:13;;;;;;;13.43;3.65;;;;;;;;;;5030769;28;20113;-87
2023/05/26 08:41:50;;;;;;;12.77;4.25;;;;;;;;;;5025157;28;20044;-87
2023/05/26 08:44:19;;;;;;;15.75;3.90;;;;;;;;;;5048462;28;20071;-87
2023/05/26 08:50:09;;;;;;;22.17;5.07;;;;;;;;;;5032670;28;20043;-87
2023/05/26 08:52:39;;;;;;;15.52;3.97;;;;;;;;;;5035756;28;20092;-87
2023/05/26 08:55:08;;;;;;;16.15;4.55;;;;;;;;;;5034077;28;20048;-87
2023/05/26 08:57:52;;;;;;;16.02;3.75;;;;;;;;;;5061446;28;20517;-88
2023/05/26 09:00:21;;;;;;;14.27;3.60;;;;;;;;;;5041677;28;20040;-87
2023/05/26 09:02:50;;;;;;;16.02;3.67;;;;;;;;;;5033197;28;22320;-87
2023/05/26 09:05:19;;;;;;;18.65;3.70;;;;;;;;;;5034250;28;20056;-87
2023/05/26 09:08:01;;;;;;;;;;;;;;;;;;;;;
2023/05/26 09:10:35;;;;;;;12.85;3.40;;;;;;;;;;5054549;28;20174;-87
2023/05/26 09:13:08;;;;;;;14.23;3.95;;;;;;;;;;5046915;28;20048;-87
2023/05/26 09:15:40;;;;;;;14.00;3.72;;;;;;;;;;5042794;28;20466;-87
2023/05/26 09:18:19;;;;;;;13.52;3.80;;;;;;;;;;5031430;28;20044;-88
2023/05/26 09:20:57;;;;;;;10.20;3.25;;;;;;;;;;5051156;28;20898;-88
2023/05/26 09:23:29;;;;;;;10.93;2.85;;;;;;;;;;5038270;28;20779;-88
2023/05/26 09:26:03;;;;;;;13.55;3.88;;;;;;;;;;5053246;28;20670;-87
2023/05/26 09:28:53;;;;;;;12.05;3.42;;;;;;;;;;5037329;28;20039;-88
2023/05/26 09:31:32;;;;;;;12.25;3.35;;;;;;;;;;5054756;28;20051;-88
2023/05/26 09:34:31;;;;;;;13.32;3.53;;;;;;;;;;5035236;28;20056;-89
2023/05/26 09:37:20;;;;;;;13.45;3.70;;;;;;;;;;5049898;28;20044;-88
2023/05/26 09:39:55;;;;;;;;;;;;;;;;;;5065630;28;20051;-88
2023/05/26 09:42:24;;;;;;;11.60;3.33;;;;;;;;;;5057318;28;19919;-88
2023/05/26 09:48:38;;;;;;;13.35;3.70;;;;;;;;;;5063153;28;20058;-88
2023/05/26 09:51:28;;;;;;;15.70;3.67;;;;;;;;;;5053105;28;20374;-89
2023/05/26 09:54:05;;;;;;;11.50;3.15;;;;;;;;;;5040704;28;20055;-88
2023/05/26 09:56:43;;;;;;;9.52;3.42;;;;;;;;;;5033778;28;20037;-88
2023/05/26 09:59:11;;;;;;;11.32;3.60;;;;;;;;;;5037828;28;20047;-89
2023/05/26 10:01:56;;;;;;;12.00;2.85;;;;;;;;;;5025534;28;20493;-89
2023/05/26 10:04:34;;;;;;;11.82;3.08;;;;;;;;;;5044222;28;20492;-88
2023/05/26 10:07:11;;;;;;;11.80;3.45;;;;;;;;;;5038445;28;20129;-88
2023/05/26 10:09:43;;;;;;;8.98;3.40;;;;;;;;;;5050681;28;23115;-89
2023/05/26 10:12:49;;;;;;;12.32;3.50;;;;;;;;;;5052849;28;20043;-88
2023/05/26 10:15:18;;;;;;;13.18;3.85;;;;;;;;;;5046115;28;20052;-88
2023/05/26 10:25:15;;;;;;;11.85;3.72;;;;;;;;;;4992785;28;20040;-89
2023/05/26 10:28:26;;;;;;;14.45;3.45;;;;;;;;;;4975503;28;20410;-88
2023/05/26 10:31:01;;;;;;;14.48;3.80;;;;;;;;;;5028494;28;20127;-88
2023/05/26 10:33:48;;;;;;;8.75;3.53;;;;;;;;;;5032781;28;20082;-87
2023/05/26 10:39:44;;;;;;;10.23;3.10;;;;;;;;;;5064377;28;20129;-87
2023/05/26 10:42:36;;;;;;;11.68;3.30;;;;;;;;;;5019723;28;20083;-88
2023/05/26 10:51:48;;;;;;;11.88;3.42;;;;;;;;;;5050525;28;20404;-89
2023/05/26 10:54:47;;;;;;;16.38;4.00;;;;;;;;;;5042994;28;20134;-88
2023/05/26 10:57:56;;;;;;;11.40;3.10;;;;;;;;;;5071786;28;20051;-88
2023/05/26 11:00:47;;;;;;;;;;;;;;;;;;;;;
2023/05/26 11:03:40;;;;;;;11.45;3.30;;;;;;;;;;5065631;28;20434;-89
2023/05/26 11:09:44;;;;;;;9.95;3.30;;;;;;;;;;5051045;28;20075;-88
2023/05/26 11:12:21;;;;;;;;;;;;;;;;;;;;;
2023/05/26 11:15:08;;;;;;;11.52;3.63;;;;;;;;;;5064357;28;20055;-88
2023/05/26 11:24:35;;;;;;;;;;;;;;;;;;;;;
2023/05/26 11:27:20;;;;;;;10.43;3.63;;;;;;;;;;5073921;28;20435;-88
2023/05/26 11:29:51;;;;;;;11.50;3.63;;;;;;;;;;5023830;28;20071;-89
2023/05/26 11:32:32;;;;;;;11.70;3.33;;;;;;;;;;5051283;28;20052;-89
2023/05/26 11:35:07;;;;;;;9.48;3.17;;;;;;;;;;5034344;28;20549;-90
2023/05/26 11:41:37;;;;;;;10.07;3.97;;;;;;;;;;4982478;28;20053;-88
2023/05/26 11:44:56;;;;;;;14.05;3.65;;;;;;;;;;4955331;28;20050;-88
2023/05/26 11:47:59;;;;;;;11.65;3.47;;;;;;;;;;4955605;28;20077;-89
2023/05/26 12:05:19;;;;;;;;;;;;;;;;;;;;;
2023/05/26 12:12:28;;;;;;;15.00;3.63;;;;;;;;;;4846479;29;20044;-90
2023/05/26 12:18:52;;;;;;;;;;;;;;;;;;;;;
2023/05/26 12:21:35;;;;;;;13.60;4.22;;;;;;;;;;4868192;29;20734;-88
2023/05/26 12:24:21;;;;;;;13.90;3.58;;;;;;;;;;4954107;28;20041;-90
2023/05/26 12:26:49;;;;;;;13.02;3.92;;;;;;;;;;5005173;28;20098;-89
2023/05/26 12:29:26;;;;;;;10.50;3.53;;;;;;;;;;5010119;28;20048;-89
2023/05/26 12:32:04;;;;;;;13.35;3.72;;;;;;;;;;5028650;28;20087;-90
2023/05/26 12:34:42;;;;;;;8.45;3.30;;;;;;;;;;5039564;28;20558;-89
2023/05/26 12:37:11;;;;;;;14.10;4.22;;;;;;;;;;5038311;28;21183;-89
2023/05/26 12:39:43;;;;;;;12.77;3.70;;;;;;;;;;5030084;28;20036;-90
2023/05/26 12:42:12;;;;;;;9.32;3.78;;;;;;;;;;5042072;28;20417;-90
2023/05/26 12:44:58;;;;;;;15.98;4.38;;;;;;;;;;5044124;28;20501;-90
2023/05/26 12:47:32;;;;;;;13.57;3.97;;;;;;;;;;5038475;28;20043;-92
2023/05/26 12:50:05;;;;;;;13.68;3.95;;;;;;;;;;5035383;28;20147;-90
2023/05/26 12:52:40;;;;;;;10.82;3.90;;;;;;;;;;5058669;28;20508;-90
2023/05/26 12:55:06;;;;;;;11.32;3.78;;;;;;;;;;5044603;28;20052;-89
2023/05/26 12:57:43;;;;;;;15.38;4.57;;;;;;;;;;5037674;28;20048;-90
2023/05/26 13:03:06;;;;;;;12.15;3.83;;;;;;;;;;5064075;28;20067;-89
2023/05/26 13:05:37;;;;;;;12.15;3.35;;;;;;;;;;5042774;28;20059;-90
2023/05/26 13:15:46;;;;;;;9.45;3.15;;;;;;;;;;5002374;28;20049;-89
2023/05/26 13:18:20;;;;;;;11.98;3.58;;;;;;;;;;5030303;28;20066;-90
2023/05/26 13:20:55;;;;;;;8.45;3.45;;;;;;;;;;4993263;28;20040;-89
2023/05/26 13:23:23;;;;;;;12.70;3.88;;;;;;;;;;4994730;28;20119;-89
2023/05/26 13:25:57;;;;;;;11.18;4.03;;;;;;;;;;5001500;28;20053;-89
2023/05/26 13:28:26;;;;;;;10.55;3.20;;;;;;;;;;4994647;28;20072;-89
2023/05/26 13:30:52;;;;;;;10.57;3.13;;;;;;;;;;5004771;28;20075;-90
2023/05/26 13:33:19;;;;;;;10.98;3.65;;;;;;;;;;4997689;28;20099;-91
2023/05/26 13:35:47;;;;;;;9.00;3.22;;;;;;;;;;5000945;28;20090;-89
2023/05/26 13:38:57;;;;;;;12.30;3.33;;;;;;;;;;5016743;28;20501;-91
2023/05/26 13:44:32;;;;;;;13.45;3.70;;;;;;;;;;4992073;28;20098;-90
2023/05/26 13:46:59;;;;;;;10.98;3.55;;;;;;;;;;5033625;28;20054;-90
2023/05/26 13:49:26;;;;;;;12.55;3.78;;;;;;;;;;5032415;28;20064;-90
2023/05/26 13:52:01;;;;;;;10.73;3.28;;;;;;;;;;5038406;28;20187;-91
2023/05/26 13:55:07;;;;;;;11.40;3.60;;;;;;;;;;5047188;28;20507;-91
2023/05/26 13:58:03;;;;;;;14.95;3.20;;;;;;;;;;5030878;28;21630;-90
2023/05/26 14:01:13;;;;;;;11.90;3.60;;;;;;;;;;5032144;28;20120;-91
2023/05/26 14:03:46;;;;;;;12.30;3.30;;;;;;;;;;5043097;28;20127;-91
2023/05/26 14:07:04;;;;;;;9.65;3.60;;;;;;;;;;5038022;28;20834;-90
2023/05/26 14:09:10;;;;;;;12.10;3.55;;;;;;;;;;5051296;28;20047;-91
2023/05/26 14:12:07;;;;;;;11.65;3.30;;;;;;;;;;5015882;28;20113;-90
2023/05/26 14:15:08;;;;;;;14.80;3.58;;;;;;;;;;5037410;28;20409;-90
2023/05/26 14:17:55;;;;;;;12.27;3.85;;;;;;;;;;5004052;28;20051;-91
2023/05/26 14:20:30;;;;;;;10.40;3.57;;;;;;;;;;5012355;28;20041;-84
2023/05/26 14:26:06;;;;;;;14.15;3.55;;;;;;;;;;5008040;28;20571;-91
2023/05/26 14:28:56;;;;;;;;;;;;;;;;;;;;;
2023/05/26 14:31:34;;;;;;;10.35;3.78;;;;;;;;;;5032578;28;20627;-91
2023/05/26 14:34:01;;;;;;;16.20;4.35;;;;;;;;;;5021884;28;20150;-91
2023/05/26 14:36:36;;;;;;;13.45;4.28;;;;;;;;;;5000348;28;20490;-89
2023/05/26 14:39:34;;;;;;;9.13;3.30;;;;;;;;;;5013408;28;20144;-89
2023/05/26 14:42:08;;;;;;;11.40;3.63;;;;;;;;;;5025920;28;20036;-87
2023/05/26 14:51:06;;;;;;;15.88;4.03;;;;;;;;;;5026166;28;20417;-90
2023/05/26 14:53:42;;;;;;;19.52;4.65;;;;;;;;;;4989687;28;20042;-90
2023/05/26 14:56:18;;;;;;;13.82;4.53;;;;;;;;;;4992823;28;20064;-89
2023/05/26 14:58:56;;;;;;;17.23;4.30;;;;;;;;;;4995866;28;20421;-89
2023/05/26 15:01:31;;;;;;;14.23;3.88;;;;;;;;;;5015126;28;20044;-89
2023/05/26 15:07:04;;;;;;;18.70;4.43;;;;;;;;;;4989841;28;20045;-90
2023/05/26 15:09:51;;;;;;;;;;;;;;;;;;4981775;28;20599;-90
2023/05/26 15:12:26;;;;;;;14.93;3.80;;;;;;;;;;4973651;28;19929;-90
2023/05/26 15:14:52;;;;;;;12.98;3.90;;;;;;;;;;4955552;28;20093;-89
2023/05/26 15:17:37;;;;;;;13.82;4.07;;;;;;;;;;4953370;28;20055;-90
2023/05/26 15:20:12;;;;;;;13.20;4.10;;;;;;;;;;4951872;28;20605;-89
2023/05/26 15:22:46;;;;;;;11.95;3.90;;;;;;;;;;4934489;28;20128;-89
2023/05/26 15:25:21;;;;;;;12.23;3.95;;;;;;;;;;4978658;28;20106;-89
2023/05/26 15:27:50;;;;;;;9.60;3.45;;;;;;;;;;4989799;28;20108;-89
2023/05/26 15:30:19;;;;;;;13.07;3.65;;;;;;;;;;4977085;28;20409;-88
2023/05/26 15:32:54;;;;;;;11.52;3.58;;;;;;;;;;4974489;28;20381;-89
2023/05/26 15:35:31;;;;;;;9.80;3.17;;;;;;;;;;4994066;28;20698;-89
2023/05/26 15:37:57;;;;;;;9.65;3.55;;;;;;;;;;4995772;28;20527;-88
2023/05/26 15:40:29;;;;;;;9.40;3.20;;;;;;;;;;4995457;28;20047;-89
2023/05/26 15:42:55;;;;;;;10.88;3.67;;;;;;;;;;5009863;28;20098;-86
2023/05/26 15:45:22;;;;;;;10.93;3.95;;;;;;;;;;5056630;28;20507;-85
2023/05/26 15:47:48;;;;;;;11.60;3.85;;;;;;;;;;5057009;28;22668;-85
2023/05/26 15:50:20;;;;;;;9.75;3.30;;;;;;;;;;5050618;28;20040;-89
2023/05/26 15:52:49;;;;;;;14.77;3.70;;;;;;;;;;5039967;28;20040;-89
2023/05/26 15:55:20;;;;;;;7.95;3.90;;;;;;;;;;5060034;28;20143;-90
2023/05/26 15:57:51;;;;;;;14.23;3.50;;;;;;;;;;5043561;28;20036;-89
2023/05/26 16:00:17;;;;;;;10.40;3.42;;;;;;;;;;5045146;28;20029;-89
2023/05/26 16:03:12;;;;;;;12.90;3.60;;;;;;;;;;5026559;28;20509;-88
2023/05/26 16:06:10;;;;;;;13.07;3.90;;;;;;;;;;5010118;28;20040;-90
2023/05/26 16:09:12;;;;;;;;;;;;;;;;;;;;;
2023/05/26 16:12:22;;;;;;;;;;;;;;;;;;;;;
2023/05/26 16:15:03;;;;;;;12.18;3.90;;;;;;;;;;4935218;28;20138;-90
2023/05/26 16:17:31;;;;;;;10.35;3.50;;;;;;;;;;4951873;28;20061;-89
2023/05/26 16:19:58;;;;;;;14.27;3.85;;;;;;;;;;4947874;28;20050;-89
2023/05/26 16:22:35;;;;;;;13.02;3.65;;;;;;;;;;4958914;28;20323;-89
2023/05/26 16:25:23;;;;;;;12.88;3.78;;;;;;;;;;4961157;28;20130;-89
2023/05/26 16:27:52;;;;;;;10.88;3.45;;;;;;;;;;4919407;28;20059;-88
2023/05/26 16:30:42;;;;;;;15.82;4.32;;;;;;;;;;4927436;28;20143;-89
2023/05/26 16:33:07;;;;;;;9.50;3.45;;;;;;;;;;4924126;28;20047;-84
2023/05/26 16:35:40;;;;;;;11.70;3.75;;;;;;;;;;4933959;28;20125;-84
2023/05/26 16:38:23;;;;;;;14.05;3.72;;;;;;;;;;4992876;28;20438;-90
2023/05/26 16:51:59;;;;;;;;;;;;;;;;;;;;;
2023/05/26 16:55:17;;;;;;;13.23;3.95;;;;;;;;;;4847882;29;20066;-89
2023/05/26 16:58:11;;;;;;;10.52;3.70;;;;;;;;;;4887373;29;20047;-90
2023/05/26 17:04:04;;;;;;;17.73;4.30;;;;;;;;;;4929932;28;20096;-90
2023/05/26 17:06:36;;;;;;;14.15;3.47;;;;;;;;;;4952516;28;20454;-89
2023/05/26 17:09:07;;;;;;;9.77;3.05;;;;;;;;;;4956683;28;20038;-90
2023/05/26 17:11:36;;;;;;;15.13;3.80;;;;;;;;;;4951762;28;20430;-89
2023/05/26 17:14:35;;;;;;;;;;;;;;;;;;;;;
2023/05/26 17:17:16;;;;;;;9.55;3.42;;;;;;;;;;4970002;28;20048;-90
2023/05/26 17:19:43;;;;;;;14.02;4.40;;;;;;;;;;4967210;28;20131;-87
2023/05/26 17:22:09;;;;;;;12.57;3.50;;;;;;;;;;5033538;28;21216;-87
2023/05/26 17:24:58;;;;;;;15.57;4.13;;;;;;;;;;5019563;28;20040;-89
2023/05/26 17:27:55;;;;;;;;;;;;;;;;;;;;;
2023/05/26 17:31:12;;;;;;;10.27;3.78;;;;;;;;;;5029032;28;20048;-88
2023/05/26 17:34:15;;;;;;;;;;;;;;;;;;;;;
2023/05/26 17:37:22;;;;;;;12.35;3.58;;;;;;;;;;5005604;28;20480;-89
2023/05/26 17:40:20;;;;;;;;;;;;;;;;;;;;;
2023/05/26 17:47:12;;;;;;;8.13;3.20;;;;;;;;;;4923486;28;20044;-88
2023/05/26 18:03:54;;;;;;;;;;;;;;;;;;;;;
2023/05/26 18:14:41;;;;;;;9.70;3.30;;;;;;;;;;4797842;29;20144;-88
2023/05/26 18:17:39;;;;;;;;;;;;;;;;;;;;;
2023/05/26 18:20:45;;;;;;;8.90;2.75;;;;;;;;;;4962519;28;20601;-88
2023/05/26 18:23:59;;;;;;;8.30;2.55;;;;;;;;;;4929406;28;20057;-87
2023/05/26 18:26:45;;;;;;;6.60;2.53;;;;;;;;;;4957070;28;20080;-87
2023/05/26 18:29:50;;;;;;;9.02;3.20;;;;;;;;;;4972011;28;20040;-87
2023/05/26 18:32:20;;;;;;;10.43;2.90;;;;;;;;;;4946818;28;20042;-87
2023/05/26 18:34:53;;;;;;;12.85;3.03;;;;;;;;;;4936374;28;20050;-87
2023/05/26 18:37:39;;;;;;;12.25;3.20;;;;;;;;;;4961952;28;20604;-87
2023/05/26 18:40:17;;;;;;;9.73;3.03;;;;;;;;;;4966701;28;20045;-86
2023/05/26 18:43:18;;;;;;;13.50;3.22;;;;;;;;;;4982210;28;20115;-86
2023/05/26 18:45:47;;;;;;;10.88;3.10;;;;;;;;;;5004209;28;20080;-87
2023/05/26 18:48:21;;;;;;;8.82;2.65;;;;;;;;;;4983291;28;20041;-86
2023/05/26 18:50:51;;;;;;;7.93;2.78;;;;;;;;;;4976001;28;20037;-87
2023/05/26 18:56:21;;;;;;;11.07;2.95;;;;;;;;;;4981756;28;20091;-87
2023/05/26 18:58:52;;;;;;;11.35;2.60;;;;;;;;;;4955760;28;20489;-87
2023/05/26 19:01:21;;;;;;;10.80;3.10;;;;;;;;;;4970794;28;20362;-87
2023/05/26 19:04:01;;;;;;;;;;;;;;;;;;;;;
2023/05/26 19:06:35;;;;;;;10.77;3.08;;;;;;;;;;4989093;28;20077;-87
2023/05/26 19:09:05;;;;;;;9.52;3.17;;;;;;;;;;4994391;28;20233;-87
2023/05/26 19:11:37;;;;;;;9.30;2.88;;;;;;;;;;4959604;28;20072;-86
2023/05/26 19:14:07;;;;;;;12.30;3.08;;;;;;;;;;4972861;28;20046;-87